Time;durP1;ratioP1;P1;durP2;ratioP2;P2;SDS_P1;SDS_P2;PMS_P1;PMS_P2;Temp;Humidity;BMP_temperature;BMP_pressure;BME280_temperature;BME280_humidity;BME280_pressure;Samples;Min_cycle;Max_cycle;Signal;HPM_P1;HPM_P2
2023/02/14 00:00:36;;;;;;;10.03;6.87;;;3.80;99.90;;;;;;5042062;28;20196;-74
2023/02/14 00:03:03;;;;;;;9.30;6.57;;;3.80;99.90;;;;;;5042106;28;20184;-74
2023/02/14 00:05:29;;;;;;;15.43;7.60;;;3.70;99.90;;;;;;5058485;28;20469;-74
2023/02/14 00:07:56;;;;;;;12.10;7.43;;;3.60;99.90;;;;;;5038247;28;20616;-74
2023/02/14 00:10:22;;;;;;;12.83;7.10;;;3.70;99.90;;;;;;5042943;28;20751;-74
2023/02/14 00:12:48;;;;;;;17.03;8.67;;;3.70;99.90;;;;;;5040291;28;20200;-74
2023/02/14 00:15:24;;;;;;;13.33;8.10;;;3.60;99.90;;;;;;5041103;28;20202;-74
2023/02/14 00:17:58;;;;;;;14.97;8.87;;;3.60;99.90;;;;;;5037911;28;20203;-74
2023/02/14 00:20:27;;;;;;;17.70;10.10;;;3.50;99.90;;;;;;5048656;28;20190;-74
2023/02/14 00:22:53;;;;;;;17.20;9.10;;;3.60;99.90;;;;;;5044770;28;20197;-74
2023/02/14 00:25:20;;;;;;;12.83;8.60;;;3.60;99.90;;;;;;5037362;28;20281;-74
2023/02/14 00:27:46;;;;;;;8.90;7.00;;;3.60;99.90;;;;;;5052117;28;20192;-73
2023/02/14 00:30:13;;;;;;;11.27;6.90;;;3.60;99.90;;;;;;5042304;28;20195;-74
2023/02/14 00:32:41;;;;;;;11.07;6.67;;;3.40;99.90;;;;;;5041752;28;20820;-74
2023/02/14 00:35:09;;;;;;;13.37;7.33;;;3.30;99.90;;;;;;5045943;28;20198;-74
2023/02/14 00:37:37;;;;;;;12.40;6.80;;;3.30;99.90;;;;;;5039460;28;20636;-74
2023/02/14 00:40:06;;;;;;;12.47;7.50;;;3.30;99.90;;;;;;5046633;28;20202;-74
2023/02/14 00:42:32;;;;;;;13.47;7.83;;;3.30;99.90;;;;;;5041538;28;20261;-73
2023/02/14 00:44:58;;;;;;;16.20;7.93;;;3.40;99.90;;;;;;5043108;28;20214;-74
2023/02/14 00:47:24;;;;;;;15.60;8.70;;;3.30;99.90;;;;;;5042813;28;20184;-74
2023/02/14 00:49:51;;;;;;;30.17;14.17;;;3.30;99.90;;;;;;5041903;28;20703;-74
2023/02/14 00:52:17;;;;;;;18.43;8.23;;;3.20;99.90;;;;;;5042228;28;20218;-74
2023/02/14 00:54:43;;;;;;;12.23;7.13;;;3.30;99.90;;;;;;5040123;28;20982;-74
2023/02/14 00:57:10;;;;;;;16.07;8.77;;;3.20;99.90;;;;;;5022401;28;20196;-74
2023/02/14 00:59:36;;;;;;;15.80;9.30;;;3.20;99.90;;;;;;5042971;28;20194;-74
2023/02/14 01:02:02;;;;;;;19.13;8.13;;;3.20;99.90;;;;;;5042558;28;20196;-74
2023/02/14 01:04:30;;;;;;;12.80;7.07;;;3.20;99.90;;;;;;5056969;28;20276;-74
2023/02/14 01:06:56;;;;;;;10.40;5.90;;;3.20;99.90;;;;;;5039639;28;20192;-74
2023/02/14 01:09:22;;;;;;;10.40;6.90;;;3.20;99.90;;;;;;5042076;28;20179;-74
2023/02/14 01:11:49;;;;;;;14.57;8.10;;;3.20;99.90;;;;;;5040294;28;20635;-74
2023/02/14 01:14:15;;;;;;;11.77;7.07;;;3.20;99.90;;;;;;5041808;28;20184;-73
2023/02/14 01:16:41;;;;;;;14.87;7.40;;;3.30;99.90;;;;;;5044333;28;20187;-74
2023/02/14 01:19:08;;;;;;;11.47;7.03;;;3.40;99.90;;;;;;5075346;28;20183;-74
2023/02/14 01:21:35;;;;;;;19.57;8.60;;;3.40;99.90;;;;;;5040448;28;20182;-74
2023/02/14 01:24:06;;;;;;;17.73;8.60;;;3.40;99.90;;;;;;5041543;28;20600;-74
2023/02/14 01:26:34;;;;;;;11.93;7.93;;;3.30;99.90;;;;;;5044343;28;20252;-74
2023/02/14 01:29:00;;;;;;;12.87;7.43;;;3.20;99.90;;;;;;5043410;28;20191;-73
2023/02/14 01:31:31;;;;;;;9.73;6.37;;;3.20;99.90;;;;;;5041879;28;20206;-73
2023/02/14 01:33:58;;;;;;;11.23;6.47;;;3.20;99.90;;;;;;5046965;28;20183;-74
2023/02/14 01:36:30;;;;;;;10.30;6.30;;;3.30;99.90;;;;;;5046547;28;20195;-74
2023/02/14 01:39:05;;;;;;;11.93;5.87;;;3.40;99.90;;;;;;5040641;28;20540;-74
2023/02/14 01:41:35;;;;;;;8.60;5.60;;;3.50;99.90;;;;;;5038761;28;20560;-74
2023/02/14 01:44:05;;;;;;;10.17;5.53;;;3.60;99.90;;;;;;5042107;28;20203;-74
2023/02/14 01:46:36;;;;;;;8.53;6.07;;;3.70;99.90;;;;;;5042605;28;20296;-74
2023/02/14 01:49:19;;;;;;;10.00;6.13;;;3.90;99.90;;;;;;5038470;28;20967;-74
2023/02/14 01:52:12;;;;;;;9.20;6.37;;;3.90;99.90;;;;;;5051195;28;20195;-74
2023/02/14 01:54:48;;;;;;;13.03;6.10;;;3.90;99.90;;;;;;5037587;28;20198;-74
2023/02/14 01:57:20;;;;;;;8.57;6.07;;;3.80;99.90;;;;;;5041086;28;20191;-74
2023/02/14 01:59:54;;;;;;;9.60;6.03;;;3.80;99.90;;;;;;5040887;28;20207;-74
2023/02/14 02:02:24;;;;;;;7.63;5.80;;;3.80;99.90;;;;;;5041818;28;20266;-74
2023/02/14 02:04:55;;;;;;;11.00;6.13;;;3.80;99.90;;;;;;5023318;28;20691;-74
2023/02/14 02:07:28;;;;;;;10.67;6.13;;;3.80;99.90;;;;;;5042882;28;20203;-74
2023/02/14 02:10:00;;;;;;;7.93;6.10;;;3.80;99.90;;;;;;5053609;28;20198;-74
2023/02/14 02:12:27;;;;;;;11.40;6.07;;;3.80;99.90;;;;;;5040335;28;20317;-73
2023/02/14 02:14:57;;;;;;;8.80;6.43;;;3.80;99.90;;;;;;5037150;28;20201;-74
2023/02/14 02:17:47;;;;;;;8.93;6.00;;;3.70;99.90;;;;;;5047337;28;20210;-70
2023/02/14 02:20:33;;;;;;;10.63;6.00;;;3.70;99.90;;;;;;5043774;28;20203;-71
2023/02/14 02:23:49;;;;;;;9.93;6.50;;;3.60;99.90;;;;;;5037988;28;20192;-71
2023/02/14 02:27:16;;;;;;;14.23;6.17;;;3.60;99.90;;;;;;5041233;28;20232;-71
2023/02/14 02:30:42;;;;;;;11.60;6.80;;;3.50;99.90;;;;;;5051741;28;20603;-71
2023/02/14 02:33:59;;;;;;;11.93;6.23;;;3.30;99.90;;;;;;5039006;28;20188;-71
2023/02/14 02:36:59;;;;;;;13.03;6.60;;;3.30;99.90;;;;;;5032545;28;20575;-70
2023/02/14 02:39:48;;;;;;;8.73;6.07;;;3.30;99.90;;;;;;5038504;28;20603;-70
2023/02/14 02:42:42;;;;;;;9.30;6.53;;;3.30;99.90;;;;;;5037268;28;20187;-70
2023/02/14 02:45:29;;;;;;;11.43;6.33;;;3.40;99.90;;;;;;5051898;28;20207;-71
2023/02/14 02:48:17;;;;;;;11.77;6.70;;;3.40;99.90;;;;;;5043298;28;20202;-71
2023/02/14 02:54:07;;;;;;;12.07;7.40;;;3.40;99.90;;;;;;5039178;28;20262;-71
2023/02/14 02:56:52;;;;;;;15.70;7.77;;;3.30;99.90;;;;;;5038209;28;20195;-71
2023/02/14 02:59:39;;;;;;;14.20;8.40;;;3.30;99.90;;;;;;5041578;28;20196;-71
2023/02/14 03:02:14;;;;;;;15.13;8.13;;;3.20;99.90;;;;;;5040204;28;20715;-71
2023/02/14 03:05:05;;;;;;;15.63;7.90;;;3.20;99.90;;;;;;5046000;28;20246;-71
2023/02/14 03:07:37;;;;;;;11.37;7.00;;;2.80;99.90;;;;;;5061049;28;20199;-70
2023/02/14 03:10:17;;;;;;;10.23;6.53;;;2.50;99.90;;;;;;5043663;28;20571;-71
2023/02/14 03:13:13;;;;;;;13.50;7.33;;;2.20;99.90;;;;;;5043357;28;20191;-71
2023/02/14 03:16:25;;;;;;;11.10;7.10;;;2.00;99.90;;;;;;5042682;28;20217;-70
2023/02/14 03:19:16;;;;;;;15.10;7.53;;;1.90;99.90;;;;;;5035851;28;20541;-70
2023/02/14 03:22:20;;;;;;;14.27;7.17;;;1.90;99.90;;;;;;5045225;28;20199;-70
2023/02/14 03:24:50;;;;;;;15.37;7.57;;;2.00;99.90;;;;;;5046365;28;20414;-71
2023/02/14 03:27:51;;;;;;;14.30;7.53;;;2.10;99.90;;;;;;5046146;28;20195;-71
2023/02/14 03:30:40;;;;;;;11.33;6.60;;;2.10;99.90;;;;;;5038882;28;20565;-70
2023/02/14 03:33:38;;;;;;;12.13;7.23;;;2.00;99.90;;;;;;5043084;28;20211;-71
2023/02/14 03:36:24;;;;;;;21.00;7.60;;;2.00;99.90;;;;;;5044584;28;20215;-70
2023/02/14 03:39:03;;;;;;;11.53;7.67;;;1.80;99.90;;;;;;5041231;28;20206;-70
2023/02/14 03:41:43;;;;;;;11.13;6.60;;;1.90;99.90;;;;;;5041934;28;20198;-70
2023/02/14 03:44:15;;;;;;;10.77;6.47;;;1.90;99.90;;;;;;5037343;28;20195;-71
2023/02/14 03:46:50;;;;;;;10.63;6.63;;;1.90;99.90;;;;;;5045161;28;20234;-70
2023/02/14 03:49:24;;;;;;;9.50;6.40;;;1.90;99.90;;;;;;5041041;28;20254;-70
2023/02/14 03:51:55;;;;;;;10.70;7.00;;;1.90;99.90;;;;;;5041078;28;20195;-70
2023/02/14 03:54:24;;;;;;;12.27;6.73;;;1.80;99.90;;;;;;5039964;28;20183;-70
2023/02/14 03:57:12;;;;;;;10.27;6.80;;;1.80;99.90;;;;;;5039517;28;20953;-71
2023/02/14 03:59:40;;;;;;;10.13;7.03;;;1.90;99.90;;;;;;5054347;28;20187;-71
2023/02/14 04:02:36;;;;;;;17.10;7.73;;;1.90;99.90;;;;;;5045627;28;20199;-70
2023/02/14 04:05:11;;;;;;;17.33;8.70;;;1.80;99.90;;;;;;5038332;28;20212;-70
2023/02/14 04:07:52;;;;;;;15.13;7.73;;;1.80;99.90;;;;;;5044654;28;20202;-70
2023/02/14 04:10:20;;;;;;;10.90;7.00;;;1.70;99.90;;;;;;5045925;28;20249;-71
2023/02/14 04:12:48;;;;;;;11.40;6.70;;;1.90;99.90;;;;;;5054862;28;20506;-71
2023/02/14 04:15:15;;;;;;;12.07;7.33;;;2.10;99.90;;;;;;5039675;28;20203;-70
2023/02/14 04:20:27;;;;;;;11.20;7.70;;;2.60;99.90;;;;;;5044832;28;20191;-70
2023/02/14 04:22:54;;;;;;;14.73;8.37;;;2.90;99.90;;;;;;5053319;28;20282;-70
2023/02/14 04:25:21;;;;;;;12.10;7.40;;;3.10;99.90;;;;;;5050665;28;20872;-71
2023/02/14 04:27:47;;;;;;;14.13;8.63;;;3.20;99.90;;;;;;5043495;28;20813;-70
2023/02/14 04:30:16;;;;;;;11.53;7.63;;;3.30;99.90;;;;;;5045324;28;20222;-70
2023/02/14 04:32:43;;;;;;;15.67;8.33;;;3.40;99.90;;;;;;5037890;28;20183;-70
2023/02/14 04:35:10;;;;;;;12.60;7.73;;;3.40;99.90;;;;;;5044176;28;20190;-70
2023/02/14 04:37:37;;;;;;;15.47;7.60;;;3.50;99.90;;;;;;5045163;28;20745;-70
2023/02/14 04:40:04;;;;;;;14.70;7.67;;;3.60;99.90;;;;;;5042819;28;20196;-71
2023/02/14 04:42:31;;;;;;;13.27;6.97;;;3.80;99.90;;;;;;5022788;28;20213;-70
2023/02/14 04:44:57;;;;;;;11.00;6.97;;;3.90;99.90;;;;;;5045352;28;20206;-70
2023/02/14 04:47:24;;;;;;;12.20;6.50;;;4.00;99.90;;;;;;5045913;28;20203;-70
2023/02/14 04:49:50;;;;;;;10.00;6.60;;;4.10;99.90;;;;;;5041062;28;20187;-70
2023/02/14 04:52:16;;;;;;;9.40;6.53;;;4.10;99.90;;;;;;5042949;28;20254;-70
2023/02/14 04:54:42;;;;;;;12.13;6.77;;;4.20;99.90;;;;;;5043141;28;20183;-69
2023/02/14 04:57:09;;;;;;;15.57;6.57;;;4.20;99.90;;;;;;5045246;28;20623;-69
2023/02/14 04:59:35;;;;;;;9.33;6.50;;;4.30;99.90;;;;;;5047175;28;20580;-68
2023/02/14 05:02:01;;;;;;;8.53;6.17;;;4.30;99.90;;;;;;5038154;28;20257;-68
2023/02/14 05:04:27;;;;;;;12.60;7.07;;;4.40;99.90;;;;;;5038473;28;20233;-69
2023/02/14 05:06:53;;;;;;;11.83;6.73;;;4.40;99.90;;;;;;5033928;28;20290;-68
2023/02/14 05:09:19;;;;;;;13.80;6.30;;;4.50;99.90;;;;;;5038860;28;20659;-70
2023/02/14 05:11:46;;;;;;;10.33;6.50;;;4.60;99.90;;;;;;5056813;28;20196;-70
2023/02/14 05:14:12;;;;;;;13.30;7.23;;;4.70;99.90;;;;;;5029274;28;20195;-70
2023/02/14 05:16:38;;;;;;;12.23;7.20;;;4.70;99.90;;;;;;5041783;28;20654;-70
2023/02/14 05:19:05;;;;;;;15.67;7.60;;;4.80;99.90;;;;;;5036931;28;20238;-70
2023/02/14 05:21:32;;;;;;;10.50;7.30;;;5.00;99.90;;;;;;5043509;28;20191;-70
2023/02/14 05:23:59;;;;;;;11.33;7.13;;;4.90;99.90;;;;;;5039888;28;21102;-70
2023/02/14 05:26:26;;;;;;;14.30;7.73;;;5.00;99.90;;;;;;5053219;28;20211;-70
2023/02/14 05:28:52;;;;;;;12.03;7.43;;;5.10;99.90;;;;;;5066409;28;20628;-70
2023/02/14 05:31:19;;;;;;;11.83;6.77;;;5.20;99.90;;;;;;5034869;28;20183;-71
2023/02/14 05:33:45;;;;;;;11.37;6.70;;;5.10;99.90;;;;;;5041803;28;20253;-71
2023/02/14 05:36:11;;;;;;;11.00;6.77;;;5.00;99.90;;;;;;5058920;28;20197;-71
2023/02/14 05:38:37;;;;;;;8.83;6.50;;;5.00;99.90;;;;;;5038770;28;20223;-71
2023/02/14 05:41:04;;;;;;;13.73;6.60;;;5.10;99.90;;;;;;5040546;28;20194;-69
2023/02/14 05:43:30;;;;;;;10.50;6.23;;;5.10;99.90;;;;;;5044490;28;20223;-69
2023/02/14 05:45:58;;;;;;;10.27;6.30;;;5.30;99.90;;;;;;5045882;28;20751;-70
2023/02/14 05:48:24;;;;;;;13.10;6.80;;;5.60;99.90;;;;;;5041838;28;20206;-70
2023/02/14 05:50:50;;;;;;;9.50;5.90;;;5.50;99.90;;;;;;5033453;28;20187;-70
2023/02/14 05:53:17;;;;;;;7.97;5.20;;;5.30;99.90;;;;;;5044559;28;20179;-70
2023/02/14 05:55:43;;;;;;;9.23;6.00;;;5.20;99.90;;;;;;5041868;28;20330;-70
2023/02/14 05:58:10;;;;;;;11.03;5.97;;;5.10;99.90;;;;;;5040137;28;20194;-71
2023/02/14 06:00:37;;;;;;;9.77;6.37;;;5.20;99.90;;;;;;5054826;28;20261;-70
2023/02/14 06:03:04;;;;;;;9.10;6.20;;;5.20;99.90;;;;;;5039180;28;20298;-70
2023/02/14 06:05:30;;;;;;;10.00;5.83;;;5.30;99.90;;;;;;5041554;28;20299;-71
2023/02/14 06:07:56;;;;;;;11.33;6.13;;;5.40;99.90;;;;;;5038867;28;20818;-70
2023/02/14 06:10:25;;;;;;;10.50;6.53;;;5.40;99.90;;;;;;5038124;28;20195;-70
2023/02/14 06:12:53;;;;;;;10.17;6.30;;;5.40;99.90;;;;;;5052996;28;20198;-70
2023/02/14 06:15:20;;;;;;;9.00;5.97;;;5.40;99.90;;;;;;5036898;28;20190;-70
2023/02/14 06:17:52;;;;;;;9.83;6.47;;;5.50;99.90;;;;;;5039511;28;20179;-70
2023/02/14 06:20:19;;;;;;;10.70;6.00;;;5.60;99.90;;;;;;5039270;28;20203;-70
2023/02/14 06:22:45;;;;;;;14.07;6.70;;;5.60;99.90;;;;;;5039690;28;20274;-71
2023/02/14 06:25:11;;;;;;;9.07;6.20;;;5.70;99.90;;;;;;5043251;28;20276;-71
2023/02/14 06:27:38;;;;;;;10.53;5.80;;;5.80;99.90;;;;;;5042970;28;20262;-69
2023/02/14 06:30:06;;;;;;;9.00;5.90;;;5.80;99.90;;;;;;5051671;28;20190;-68
2023/02/14 06:32:32;;;;;;;13.47;5.73;;;5.90;99.90;;;;;;5038147;28;20262;-69
2023/02/14 06:34:58;;;;;;;8.83;5.20;;;6.00;99.90;;;;;;5042859;28;20817;-69
2023/02/14 06:37:25;;;;;;;8.80;5.37;;;6.20;99.90;;;;;;5048309;28;20203;-71
2023/02/14 06:39:51;;;;;;;7.53;5.20;;;6.20;99.90;;;;;;5035734;28;20620;-71
2023/02/14 06:42:17;;;;;;;8.30;5.03;;;6.20;99.90;;;;;;5046589;28;20611;-69
2023/02/14 06:44:43;;;;;;;8.37;4.83;;;6.30;99.90;;;;;;5041967;28;20575;-71
2023/02/14 06:47:09;;;;;;;8.57;5.17;;;6.30;99.90;;;;;;5064026;28;20190;-68
2023/02/14 06:49:36;;;;;;;6.60;5.03;;;6.20;99.90;;;;;;5057952;28;20180;-68
2023/02/14 06:52:04;;;;;;;7.83;4.90;;;6.30;99.90;;;;;;5052199;28;20372;-69
2023/02/14 06:54:31;;;;;;;8.23;5.10;;;6.40;99.90;;;;;;5040505;28;20294;-69
2023/02/14 06:56:58;;;;;;;8.60;4.50;;;6.40;99.90;;;;;;5046408;28;20199;-69
2023/02/14 06:59:24;;;;;;;9.67;4.17;;;6.40;99.90;;;;;;5051137;28;20236;-69
2023/02/14 07:01:50;;;;;;;10.27;4.40;;;6.70;99.90;;;;;;5041529;28;20211;-69
2023/02/14 07:04:17;;;;;;;8.63;5.10;;;6.80;99.90;;;;;;5048811;28;20225;-68
2023/02/14 07:06:45;;;;;;;10.73;4.57;;;6.80;99.90;;;;;;5046279;28;20417;-69
2023/02/14 07:09:15;;;;;;;7.40;4.93;;;6.70;99.90;;;;;;5047438;28;20210;-69
2023/02/14 07:11:43;;;;;;;5.57;4.47;;;6.50;99.90;;;;;;5046094;28;20184;-69
2023/02/14 07:14:09;;;;;;;8.73;4.63;;;6.50;99.90;;;;;;5047116;28;20206;-68
2023/02/14 07:16:36;;;;;;;8.07;4.60;;;6.30;99.90;;;;;;5041521;28;20588;-68
2023/02/14 07:19:02;;;;;;;6.60;4.10;;;6.30;99.90;;;;;;5046848;28;20187;-68
2023/02/14 07:21:28;;;;;;;7.57;3.70;;;6.30;99.90;;;;;;5048353;28;20191;-68
2023/02/14 07:23:54;;;;;;;7.93;3.77;;;6.30;99.90;;;;;;5043544;28;21009;-69
2023/02/14 07:26:20;;;;;;;6.30;4.13;;;6.30;99.90;;;;;;5043205;28;20217;-69
2023/02/14 07:28:48;;;;;;;11.27;4.20;;;6.20;99.90;;;;;;5048529;28;20538;-68
2023/02/14 07:31:15;;;;;;;6.20;4.10;;;6.30;99.90;;;;;;5043530;28;20198;-68
2023/02/14 07:33:43;;;;;;;6.07;3.83;;;6.40;99.90;;;;;;5058816;28;20183;-68
2023/02/14 07:36:09;;;;;;;5.77;4.37;;;6.40;99.90;;;;;;5042636;28;20202;-69
2023/02/14 07:38:36;;;;;;;9.17;5.13;;;6.30;99.90;;;;;;5039689;28;20541;-69
2023/02/14 07:41:02;;;;;;;9.63;4.90;;;6.20;99.90;;;;;;5041088;28;20846;-69
2023/02/14 07:43:29;;;;;;;7.87;4.67;;;6.30;99.90;;;;;;5043224;28;20240;-68
2023/02/14 07:45:59;;;;;;;13.30;5.90;;;6.30;99.90;;;;;;5061660;28;20289;-68
2023/02/14 07:48:25;;;;;;;7.00;5.23;;;6.50;99.90;;;;;;5048303;28;20762;-68
2023/02/14 07:50:55;;;;;;;6.27;4.70;;;6.70;99.90;;;;;;5045567;28;20195;-71
2023/02/14 07:53:22;;;;;;;8.20;4.67;;;7.00;99.90;;;;;;5045599;28;20211;-69
2023/02/14 07:55:50;;;;;;;8.07;5.20;;;6.70;99.90;;;;;;5063489;28;20234;-69
2023/02/14 07:58:16;;;;;;;8.10;5.63;;;6.70;99.90;;;;;;5055564;28;20234;-68
2023/02/14 08:00:45;;;;;;;10.73;5.90;;;6.80;99.90;;;;;;5044831;28;20534;-68
2023/02/14 08:03:12;;;;;;;10.47;6.37;;;6.70;99.90;;;;;;5058549;28;20266;-68
2023/02/14 08:05:39;;;;;;;12.80;6.73;;;7.20;99.90;;;;;;5034194;28;20214;-69
2023/02/14 08:08:05;;;;;;;10.43;6.50;;;7.40;99.90;;;;;;5041652;28;20209;-69
2023/02/14 08:10:31;;;;;;;10.07;6.03;;;7.50;99.90;;;;;;5044851;28;20226;-68
2023/02/14 08:12:58;;;;;;;10.47;6.30;;;7.40;99.90;;;;;;5038712;28;20556;-68
2023/02/14 08:18:17;;;;;;;8.27;6.30;;;7.80;99.90;;;;;;5038188;28;20187;-69
2023/02/14 08:20:45;;;;;;;7.83;5.57;;;8.00;99.90;;;;;;5045120;28;20191;-69
2023/02/14 08:23:11;;;;;;;9.07;5.97;;;8.00;99.90;;;;;;5036325;28;20248;-69
2023/02/14 08:25:38;;;;;;;8.13;5.73;;;7.80;99.90;;;;;;5045606;28;20211;-69
2023/02/14 08:28:05;;;;;;;10.23;6.20;;;7.80;99.90;;;;;;5039887;28;20202;-69
2023/02/14 08:30:32;;;;;;;8.47;5.40;;;8.10;99.90;;;;;;5039553;28;20222;-69
2023/02/14 08:32:58;;;;;;;8.43;5.13;;;8.30;99.90;;;;;;5037523;28;20278;-69
2023/02/14 08:35:24;;;;;;;11.10;4.97;;;8.30;99.90;;;;;;5037470;28;20200;-68
2023/02/14 08:37:51;;;;;;;8.70;5.40;;;8.40;99.90;;;;;;5055359;28;20196;-71
2023/02/14 08:40:17;;;;;;;6.87;4.87;;;8.60;99.90;;;;;;5036796;28;20663;-69
2023/02/14 08:42:44;;;;;;;10.40;4.80;;;8.60;99.90;;;;;;5055232;28;20195;-69
2023/02/14 08:45:10;;;;;;;6.60;4.53;;;8.60;99.90;;;;;;5042158;28;20245;-69
2023/02/14 08:47:37;;;;;;;7.13;4.83;;;8.50;99.90;;;;;;5033801;28;20275;-69
2023/02/14 08:50:10;;;;;;;9.43;4.40;;;8.40;99.90;;;;;;5044386;28;20191;-69
2023/02/14 08:52:38;;;;;;;9.90;4.53;;;8.50;99.90;;;;;;5039732;28;20298;-69
2023/02/14 08:55:05;;;;;;;5.63;3.63;;;8.70;99.90;;;;;;5039998;28;20194;-69
2023/02/14 08:57:31;;;;;;;7.67;4.50;;;8.80;99.90;;;;;;5037386;28;20179;-69
2023/02/14 08:59:58;;;;;;;6.93;4.20;;;8.90;99.90;;;;;;5041027;28;20745;-69
2023/02/14 09:02:24;;;;;;;6.10;3.77;;;8.70;99.90;;;;;;5035690;28;20784;-69
2023/02/14 09:04:50;;;;;;;6.17;4.17;;;8.80;99.90;;;;;;5034850;28;20820;-69
2023/02/14 09:07:17;;;;;;;5.53;3.90;;;8.90;99.90;;;;;;5050942;28;20192;-69
2023/02/14 09:09:43;;;;;;;5.80;4.30;;;8.80;99.90;;;;;;5041880;28;20210;-69
2023/02/14 09:12:10;;;;;;;6.63;3.23;;;8.80;99.90;;;;;;5039129;28;20203;-69
2023/02/14 09:14:45;;;;;;;5.27;3.60;;;8.90;99.90;;;;;;5039304;28;20190;-69
2023/02/14 09:17:14;;;;;;;7.30;4.40;;;9.00;99.90;;;;;;5037848;28;20187;-69
2023/02/14 09:19:40;;;;;;;8.40;4.47;;;9.30;99.90;;;;;;5039661;28;20768;-69
2023/02/14 09:22:09;;;;;;;10.67;4.30;;;9.20;99.90;;;;;;5038407;28;20190;-69
2023/02/14 09:24:37;;;;;;;7.50;4.30;;;9.30;99.90;;;;;;5039265;28;20234;-69
2023/02/14 09:27:05;;;;;;;7.00;3.80;;;9.40;99.90;;;;;;5037988;28;20188;-69
2023/02/14 09:29:33;;;;;;;5.00;3.70;;;9.40;99.90;;;;;;5041256;28;20191;-69
2023/02/14 09:32:01;;;;;;;5.07;3.33;;;9.60;99.90;;;;;;5032555;28;20191;-69
2023/02/14 09:34:28;;;;;;;6.13;3.70;;;9.50;99.90;;;;;;5034737;28;20180;-69
2023/02/14 09:39:39;;;;;;;6.20;4.20;;;9.50;99.90;;;;;;5036464;28;20171;-69
2023/02/14 09:42:42;;;;;;;6.60;3.83;;;9.00;99.90;;;;;;5056747;28;20627;-69
2023/02/14 09:45:14;;;;;;;5.57;3.97;;;9.30;99.90;;;;;;5036801;28;20260;-69
2023/02/14 09:47:51;;;;;;;8.30;4.30;;;9.60;99.90;;;;;;5037959;28;20187;-69
2023/02/14 09:50:30;;;;;;;5.83;3.80;;;9.80;99.90;;;;;;5034633;28;20189;-69
2023/02/14 09:53:07;;;;;;;5.13;3.80;;;9.80;99.90;;;;;;5034346;28;20282;-70
2023/02/14 09:56:03;;;;;;;6.57;4.27;;;9.90;99.90;;;;;;5035267;28;20798;-69
2023/02/14 09:58:46;;;;;;;9.17;3.70;;;10.10;99.90;;;;;;5037088;28;20192;-69
2023/02/14 10:01:32;;;;;;;7.17;4.00;;;10.10;99.90;;;;;;5050554;28;20820;-69
2023/02/14 10:04:18;;;;;;;7.43;4.03;;;10.10;99.90;;;;;;5038799;28;20865;-69
2023/02/14 10:07:15;;;;;;;9.10;4.37;;;9.90;99.90;;;;;;5019178;28;20218;-69
2023/02/14 10:10:15;;;;;;;9.30;4.40;;;10.10;99.90;;;;;;5052204;28;20179;-69
2023/02/14 10:13:25;;;;;;;7.90;4.27;;;10.20;99.90;;;;;;5041589;28;20298;-69
2023/02/14 10:16:06;;;;;;;5.83;4.10;;;10.50;99.90;;;;;;5053578;28;20231;-69
2023/02/14 10:18:53;;;;;;;8.87;4.60;;;10.70;99.90;;;;;;5042875;28;20179;-69
2023/02/14 10:21:32;;;;;;;8.37;4.30;;;10.70;99.90;;;;;;5047203;28;20174;-70
2023/02/14 10:24:20;;;;;;;6.37;4.03;;;10.80;99.90;;;;;;5057834;28;20214;-69
2023/02/14 10:26:52;;;;;;;6.53;3.57;;;11.00;99.90;;;;;;5041736;28;20783;-69
2023/02/14 10:29:19;;;;;;;6.17;3.53;;;11.00;99.90;;;;;;5061550;28;20543;-69
2023/02/14 10:31:59;;;;;;;5.43;4.00;;;11.00;99.90;;;;;;5047785;28;21846;-69
2023/02/14 10:34:50;;;;;;;6.87;3.97;;;11.10;99.90;;;;;;5059912;28;20179;-69
2023/02/14 10:37:48;;;;;;;6.63;4.47;;;11.20;99.90;;;;;;5044561;28;20210;-69
2023/02/14 10:40:35;;;;;;;8.60;4.20;;;11.40;99.90;;;;;;5045024;28;20193;-69
2023/02/14 10:43:30;;;;;;;8.40;4.43;;;11.60;99.90;;;;;;5039275;28;20194;-70
2023/02/14 10:46:21;;;;;;;7.53;5.07;;;12.00;99.90;;;;;;5034606;28;20447;-69
2023/02/14 10:49:26;;;;;;;8.95;5.22;;;11.90;99.90;;;;;;5041026;28;20421;-70
2023/02/14 10:52:24;;;;;;;5.63;4.53;;;12.20;99.90;;;;;;5045126;28;20424;-69
2023/02/14 10:55:35;;;;;;;8.38;5.35;;;12.60;99.90;;;;;;5052222;28;20475;-69
2023/02/14 10:58:06;;;;;;;7.82;5.47;;;13.00;99.90;;;;;;5037606;28;20421;-69
2023/02/14 11:00:46;;;;;;;7.40;5.23;;;13.10;99.90;;;;;;5042299;28;20215;-69
2023/02/14 11:03:14;;;;;;;7.30;5.07;;;13.10;99.90;;;;;;5041920;28;20294;-69
2023/02/14 11:05:49;;;;;;;6.47;5.27;;;12.90;99.90;;;;;;5037913;28;20204;-70
2023/02/14 11:08:33;;;;;;;9.83;5.93;;;12.90;99.90;;;;;;5058676;28;20217;-70
2023/02/14 11:11:16;;;;;;;6.73;4.83;;;12.90;99.90;;;;;;5041536;28;20186;-69
2023/02/14 11:13:44;;;;;;;10.23;5.60;;;13.30;99.90;;;;;;5038624;28;20245;-69
2023/02/14 11:16:31;;;;;;;9.03;5.87;;;13.00;99.90;;;;;;5041173;28;20218;-70
2023/02/14 11:19:33;;;;;;;9.87;5.73;;;13.50;99.90;;;;;;5045518;28;20273;-70
2023/02/14 11:22:01;;;;;;;8.50;5.23;;;13.70;99.90;;;;;;5029892;28;20197;-69
2023/02/14 11:24:37;;;;;;;7.80;4.70;;;14.20;99.90;;;;;;5044108;28;20301;-70
2023/02/14 11:27:19;;;;;;;6.53;4.87;;;14.30;99.90;;;;;;5047346;28;20194;-70
2023/02/14 11:29:51;;;;;;;8.43;4.90;;;13.70;99.90;;;;;;5041618;28;20192;-70
2023/02/14 11:32:27;;;;;;;8.93;5.40;;;13.10;99.90;;;;;;5039879;28;20179;-69
2023/02/14 11:35:18;;;;;;;10.90;6.17;;;12.80;99.90;;;;;;5056410;28;20311;-70
2023/02/14 11:37:57;;;;;;;10.07;5.90;;;12.60;99.90;;;;;;5040057;28;20192;-69
2023/02/14 11:40:31;;;;;;;10.57;5.83;;;12.60;99.90;;;;;;5039182;28;20237;-70
2023/02/14 11:43:10;;;;;;;8.37;5.67;;;12.70;99.90;;;;;;5041568;28;20270;-70
2023/02/14 11:45:40;;;;;;;8.17;5.53;;;12.60;99.90;;;;;;5041132;28;20211;-70
2023/02/14 11:48:26;;;;;;;7.37;4.90;;;12.50;99.90;;;;;;5041016;28;20733;-70
2023/02/14 11:51:14;;;;;;;7.10;4.77;;;12.60;99.90;;;;;;5040607;28;20668;-70
2023/02/14 11:53:55;;;;;;;7.87;5.47;;;12.70;99.90;;;;;;5037828;28;20211;-70
2023/02/14 11:56:23;;;;;;;8.07;5.73;;;12.60;99.90;;;;;;5034237;28;20778;-70
2023/02/14 11:59:01;;;;;;;8.77;5.37;;;12.70;99.90;;;;;;5046840;28;20253;-69
2023/02/14 12:01:35;;;;;;;13.47;5.70;;;12.70;99.90;;;;;;5039827;28;20184;-69
2023/02/14 12:04:11;;;;;;;7.37;4.10;;;12.70;99.90;;;;;;5045787;28;20592;-70
2023/02/14 12:06:37;;;;;;;4.90;3.70;;;12.70;99.90;;;;;;5024442;28;20211;-70
2023/02/14 12:09:22;;;;;;;7.10;5.20;;;12.80;99.90;;;;;;5061878;28;20231;-70
2023/02/14 12:12:01;;;;;;;10.40;5.67;;;12.80;99.90;;;;;;5040476;28;20199;-69
2023/02/14 12:14:34;;;;;;;9.40;5.17;;;12.70;99.90;;;;;;5041924;28;20210;-69
2023/02/14 12:17:25;;;;;;;8.00;4.87;;;12.50;99.90;;;;;;5041589;28;20242;-69
2023/02/14 12:21:05;;;;;;;8.67;5.00;;;12.60;99.90;;;;;;5045858;28;20187;-69
2023/02/14 12:23:43;;;;;;;7.67;5.60;;;12.70;99.90;;;;;;5012705;28;20200;-70
2023/02/14 12:26:37;;;;;;;9.57;6.27;;;12.70;99.90;;;;;;5037886;28;20213;-70
2023/02/14 12:29:38;;;;;;;9.87;5.97;;;12.50;99.90;;;;;;5041699;28;20184;-70
2023/02/14 12:32:26;;;;;;;9.67;6.10;;;12.40;99.90;;;;;;5056445;28;20187;-69
2023/02/14 12:35:17;;;;;;;10.47;5.90;;;12.40;99.90;;;;;;5054602;28;20188;-69
2023/02/14 12:38:23;;;;;;;11.30;6.47;;;12.40;99.90;;;;;;5045063;28;20182;-69
2023/02/14 12:41:29;;;;;;;11.20;5.90;;;12.40;99.90;;;;;;5055862;28;20191;-70
2023/02/14 12:44:06;;;;;;;6.63;4.47;;;12.40;99.90;;;;;;5040003;28;20256;-69
2023/02/14 12:47:15;;;;;;;9.23;5.90;;;12.50;99.90;;;;;;5070565;28;20231;-69
2023/02/14 12:50:24;;;;;;;11.17;6.13;;;12.40;99.90;;;;;;5042532;28;20230;-70
2023/02/14 12:53:47;;;;;;;7.07;5.23;;;12.30;99.90;;;;;;5041635;28;20890;-70
2023/02/14 12:56:41;;;;;;;13.37;5.53;;;12.00;99.90;;;;;;5031934;28;20232;-69
2023/02/14 12:59:19;;;;;;;9.33;5.60;;;12.00;99.90;;;;;;5038036;28;20197;-69
2023/02/14 13:02:19;;;;;;;10.07;5.37;;;12.10;99.90;;;;;;5024059;28;20805;-69
2023/02/14 13:05:00;;;;;;;8.80;5.03;;;12.20;99.90;;;;;;5037223;28;20282;-69
2023/02/14 13:07:53;;;;;;;9.63;6.03;;;12.10;99.90;;;;;;5037670;28;20187;-71
2023/02/14 13:10:31;;;;;;;12.37;6.30;;;12.10;99.90;;;;;;5040538;28;20751;-69
2023/02/14 13:14:03;;;;;;;8.73;6.23;;;11.90;99.90;;;;;;5069563;28;20549;-69
2023/02/14 13:17:15;;;;;;;9.53;5.23;;;11.90;99.90;;;;;;5022729;28;20640;-69
2023/02/14 13:20:02;;;;;;;8.60;5.10;;;11.80;99.90;;;;;;5019894;28;20199;-69
2023/02/14 13:22:32;;;;;;;10.00;5.00;;;11.80;99.90;;;;;;5050989;28;20187;-69
2023/02/14 13:25:32;;;;;;;10.73;5.43;;;11.80;99.90;;;;;;5039787;28;20799;-69
2023/02/14 13:28:09;;;;;;;8.90;5.27;;;11.80;99.90;;;;;;5039549;28;20188;-71
2023/02/14 13:30:37;;;;;;;9.90;5.27;;;11.60;99.90;;;;;;5056280;28;21161;-69
2023/02/14 13:33:23;;;;;;;10.03;6.00;;;11.30;99.90;;;;;;5041761;28;20653;-69
2023/02/14 13:35:54;;;;;;;9.83;5.50;;;10.90;99.90;;;;;;5054378;28;20249;-69
2023/02/14 13:38:22;;;;;;;11.17;6.03;;;11.10;99.90;;;;;;5038749;28;20187;-69
2023/02/14 13:40:49;;;;;;;10.07;5.83;;;11.30;99.90;;;;;;5032582;28;20191;-69
2023/02/14 13:44:04;;;;;;;10.23;5.83;;;11.10;99.90;;;;;;5043233;28;20192;-69